Etusivu
METAR-TAF:

METAR-TAF

Lentoasemat :

Benson, Minnesota, Yhdysvallat

Leveyspiiri: 45-19N, Pituuspiiri: 095-39W, korkeus merenpinnasta: 317 m

Tämänhetkinen sää

Tämä raportti tehtiin 18 minuuttia sitten, kello 10.44 UTC
Tuuli 6 kn etelästä/kaakosta
Lämpötila -6°C
Kosteus 86%
Ilmanpaine 1011 hPa
Näkyvyys: 16.1 km
Pilvistä 1100 ft:n korkeudessa

METAR: KBBB 171044Z AUTO 16006KT 10SM OVC011 M06/M08 A2986 RMK AO2

Aika: 05:02 (11:02 UTC)


TAF: puuttuu

Säähavainnot ja -ennusteet yli 4000 lentoasemalta (METAR- ja TAF-raportit).

Käytössä olevat sääasemat on merkitty karttaan keltaisilla ja punaisilla pisteillä.

Aseta hiiri pisteen päälle nähdäksesi sääaseman nimen.

Klikkaa sitten nähdäksesi säähavainnot ja -ennusteet.

Kartan vaihtaminen: klikkaa mustalla rastilla varustettuja vihreitä pisteitä, niin voit zoomata sisään; viivalla varustettua vihreää pistettä, niin voit zoomata ulos tai vihreitä nuolia, niin pääset viereisille kartoille.


METAR-TAF: